sensor_id;sensor_type;location;lat;lon;timestamp;temperature;humidity
70246;SHT30;57637;49.272;8.590;2022-10-16T00:01:08;16.19;96.59
70246;SHT30;57637;49.272;8.590;2022-10-16T00:03:36;16.19;96.58
70246;SHT30;57637;49.272;8.590;2022-10-16T00:06:02;16.19;96.58
70246;SHT30;57637;49.272;8.590;2022-10-16T00:08:29;16.21;96.61
70246;SHT30;57637;49.272;8.590;2022-10-16T00:13:54;16.21;96.67
70246;SHT30;57637;49.272;8.590;2022-10-16T00:16:22;16.19;96.70
70246;SHT30;57637;49.272;8.590;2022-10-16T00:18:48;16.19;96.73
70246;SHT30;57637;49.272;8.590;2022-10-16T00:21:18;16.18;96.74
70246;SHT30;57637;49.272;8.590;2022-10-16T00:23:45;16.19;96.71
70246;SHT30;57637;49.272;8.590;2022-10-16T00:26:12;16.19;96.65
70246;SHT30;57637;49.272;8.590;2022-10-16T00:28:41;16.18;96.61
70246;SHT30;57637;49.272;8.590;2022-10-16T00:31:08;16.16;96.60
70246;SHT30;57637;49.272;8.590;2022-10-16T00:33:36;16.16;96.56
70246;SHT30;57637;49.272;8.590;2022-10-16T00:36:03;16.16;96.51
70246;SHT30;57637;49.272;8.590;2022-10-16T00:38:30;16.13;96.48
70246;SHT30;57637;49.272;8.590;2022-10-16T00:40:56;16.12;96.51
70246;SHT30;57637;49.272;8.590;2022-10-16T00:43:40;16.09;96.57
70246;SHT30;57637;49.272;8.590;2022-10-16T00:46:11;16.11;96.50
70246;SHT30;57637;49.272;8.590;2022-10-16T00:48:45;16.11;96.57
70246;SHT30;57637;49.272;8.590;2022-10-16T00:51:31;16.09;96.61
70246;SHT30;57637;49.272;8.590;2022-10-16T00:53:59;16.08;96.63
70246;SHT30;57637;49.272;8.590;2022-10-16T00:56:25;16.05;96.70
70246;SHT30;57637;49.272;8.590;2022-10-16T00:58:51;16.05;96.73
70246;SHT30;57637;49.272;8.590;2022-10-16T01:01:16;16.08;96.83
70246;SHT30;57637;49.272;8.590;2022-10-16T01:03:42;16.08;96.86
70246;SHT30;57637;49.272;8.590;2022-10-16T01:11:48;16.04;97.03
70246;SHT30;57637;49.272;8.590;2022-10-16T01:14:16;16.02;97.07
70246;SHT30;57637;49.272;8.590;2022-10-16T01:17:11;16.04;97.07
70246;SHT30;57637;49.272;8.590;2022-10-16T01:22:19;16.04;97.03
70246;SHT30;57637;49.272;8.590;2022-10-16T01:24:48;16.06;97.08
70246;SHT30;57637;49.272;8.590;2022-10-16T01:27:16;16.05;97.00
70246;SHT30;57637;49.272;8.590;2022-10-16T01:32:26;16.06;96.89
70246;SHT30;57637;49.272;8.590;2022-10-16T01:35:09;16.06;96.86
70246;SHT30;57637;49.272;8.590;2022-10-16T01:37:41;16.04;96.81
70246;SHT30;57637;49.272;8.590;2022-10-16T01:40:14;16.00;96.80
70246;SHT30;57637;49.272;8.590;2022-10-16T01:42:47;16.00;96.76
70246;SHT30;57637;49.272;8.590;2022-10-16T01:45:16;15.95;96.88
70246;SHT30;57637;49.272;8.590;2022-10-16T01:47:44;15.94;96.93
70246;SHT30;57637;49.272;8.590;2022-10-16T01:50:10;15.88;96.99
70246;SHT30;57637;49.272;8.590;2022-10-16T01:52:39;15.87;97.07
70246;SHT30;57637;49.272;8.590;2022-10-16T01:55:07;15.88;97.13
70246;SHT30;57637;49.272;8.590;2022-10-16T01:57:36;15.88;97.08
70246;SHT30;57637;49.272;8.590;2022-10-16T02:00:07;15.87;97.20
70246;SHT30;57637;49.272;8.590;2022-10-16T02:02:35;15.90;97.17
70246;SHT30;57637;49.272;8.590;2022-10-16T02:05:08;15.90;97.04
70246;SHT30;57637;49.272;8.590;2022-10-16T02:07:47;15.78;97.10
70246;SHT30;57637;49.272;8.590;2022-10-16T02:10:13;15.78;97.46
70246;SHT30;57637;49.272;8.590;2022-10-16T02:12:40;15.81;97.48
70246;SHT30;57637;49.272;8.590;2022-10-16T02:15:10;15.78;97.45
70246;SHT30;57637;49.272;8.590;2022-10-16T02:17:36;15.81;97.44
70246;SHT30;57637;49.272;8.590;2022-10-16T02:20:01;15.77;97.43
70246;SHT30;57637;49.272;8.590;2022-10-16T02:22:36;15.75;97.74
70246;SHT30;57637;49.272;8.590;2022-10-16T02:30:30;15.75;97.82
70246;SHT30;57637;49.272;8.590;2022-10-16T02:33:00;15.71;97.88
70246;SHT30;57637;49.272;8.590;2022-10-16T02:35:28;15.71;97.93
70246;SHT30;57637;49.272;8.590;2022-10-16T02:37:55;15.72;97.97
70246;SHT30;57637;49.272;8.590;2022-10-16T02:40:22;15.72;97.97
70246;SHT30;57637;49.272;8.590;2022-10-16T02:42:50;15.72;97.86
70246;SHT30;57637;49.272;8.590;2022-10-16T02:45:16;15.72;97.85
70246;SHT30;57637;49.272;8.590;2022-10-16T02:47:42;15.70;97.85
70246;SHT30;57637;49.272;8.590;2022-10-16T02:50:07;15.71;97.93
70246;SHT30;57637;49.272;8.590;2022-10-16T02:52:33;15.71;97.94
70246;SHT30;57637;49.272;8.590;2022-10-16T02:54:58;15.75;97.82
70246;SHT30;57637;49.272;8.590;2022-10-16T02:57:23;15.77;97.80
70246;SHT30;57637;49.272;8.590;2022-10-16T02:59:49;15.78;97.69
70246;SHT30;57637;49.272;8.590;2022-10-16T03:02:14;15.80;97.73
70246;SHT30;57637;49.272;8.590;2022-10-16T03:04:40;15.84;97.66
70246;SHT30;57637;49.272;8.590;2022-10-16T03:07:05;15.82;97.54
70246;SHT30;57637;49.272;8.590;2022-10-16T03:09:30;15.90;97.51
70246;SHT30;57637;49.272;8.590;2022-10-16T03:11:56;15.90;97.40
70246;SHT30;57637;49.272;8.590;2022-10-16T03:14:21;15.91;97.33
70246;SHT30;57637;49.272;8.590;2022-10-16T03:16:46;15.90;97.35
70246;SHT30;57637;49.272;8.590;2022-10-16T03:19:12;15.90;97.30
70246;SHT30;57637;49.272;8.590;2022-10-16T03:21:37;15.91;97.27
70246;SHT30;57637;49.272;8.590;2022-10-16T03:24:03;15.92;97.21
70246;SHT30;57637;49.272;8.590;2022-10-16T03:26:28;15.94;97.20
70246;SHT30;57637;49.272;8.590;2022-10-16T03:28:54;15.97;97.10
70246;SHT30;57637;49.272;8.590;2022-10-16T03:31:19;15.97;96.93
70246;SHT30;57637;49.272;8.590;2022-10-16T03:33:44;16.01;96.78
70246;SHT30;57637;49.272;8.590;2022-10-16T03:36:10;16.02;96.68
70246;SHT30;57637;49.272;8.590;2022-10-16T03:38:35;15.98;96.63
70246;SHT30;57637;49.272;8.590;2022-10-16T03:41:00;15.94;96.89
70246;SHT30;57637;49.272;8.590;2022-10-16T03:43:26;15.95;96.92
70246;SHT30;57637;49.272;8.590;2022-10-16T03:45:51;15.95;96.97
70246;SHT30;57637;49.272;8.590;2022-10-16T03:48:17;15.95;97.00
70246;SHT30;57637;49.272;8.590;2022-10-16T03:50:43;15.94;97.11
70246;SHT30;57637;49.272;8.590;2022-10-16T03:53:09;15.94;97.14
70246;SHT30;57637;49.272;8.590;2022-10-16T03:55:34;15.94;97.16
70246;SHT30;57637;49.272;8.590;2022-10-16T03:58:00;15.94;97.17
70246;SHT30;57637;49.272;8.590;2022-10-16T04:00:25;15.95;97.25
70246;SHT30;57637;49.272;8.590;2022-10-16T04:02:51;15.97;97.22
70246;SHT30;57637;49.272;8.590;2022-10-16T04:05:16;15.97;97.23
70246;SHT30;57637;49.272;8.590;2022-10-16T04:07:42;15.94;97.19
70246;SHT30;57637;49.272;8.590;2022-10-16T04:10:07;15.94;97.27
70246;SHT30;57637;49.272;8.590;2022-10-16T04:12:33;15.94;97.25
70246;SHT30;57637;49.272;8.590;2022-10-16T04:14:58;15.92;97.25
70246;SHT30;57637;49.272;8.590;2022-10-16T04:17:23;15.91;97.36
70246;SHT30;57637;49.272;8.590;2022-10-16T04:19:49;15.90;97.47
70246;SHT30;57637;49.272;8.590;2022-10-16T04:22:14;15.88;97.50
70246;SHT30;57637;49.272;8.590;2022-10-16T04:24:40;15.85;97.65
70246;SHT30;57637;49.272;8.590;2022-10-16T04:27:05;15.84;97.60
70246;SHT30;57637;49.272;8.590;2022-10-16T04:29:31;15.84;97.58
70246;SHT30;57637;49.272;8.590;2022-10-16T04:31:56;15.82;97.64
70246;SHT30;57637;49.272;8.590;2022-10-16T04:34:21;15.80;97.49
70246;SHT30;57637;49.272;8.590;2022-10-16T04:36:47;15.75;97.59
70246;SHT30;57637;49.272;8.590;2022-10-16T04:39:14;15.67;97.61
70246;SHT30;57637;49.272;8.590;2022-10-16T04:41:40;15.58;98.02
70246;SHT30;57637;49.272;8.590;2022-10-16T04:44:05;15.51;98.30
70246;SHT30;57637;49.272;8.590;2022-10-16T04:46:30;15.50;98.57
70246;SHT30;57637;49.272;8.590;2022-10-16T04:48:55;15.54;98.65
70246;SHT30;57637;49.272;8.590;2022-10-16T04:51:21;15.57;98.65
70246;SHT30;57637;49.272;8.590;2022-10-16T04:53:46;15.54;98.57
70246;SHT30;57637;49.272;8.590;2022-10-16T04:56:12;15.57;98.54
70246;SHT30;57637;49.272;8.590;2022-10-16T04:58:37;15.55;98.55
70246;SHT30;57637;49.272;8.590;2022-10-16T05:01:02;15.53;98.56
70246;SHT30;57637;49.272;8.590;2022-10-16T05:03:28;15.53;98.66
70246;SHT30;57637;49.272;8.590;2022-10-16T05:05:53;15.53;98.56
70246;SHT30;57637;49.272;8.590;2022-10-16T05:08:18;15.51;98.57
70246;SHT30;57637;49.272;8.590;2022-10-16T05:10:44;15.53;98.68
70246;SHT30;57637;49.272;8.590;2022-10-16T05:13:10;15.54;98.63
70246;SHT30;57637;49.272;8.590;2022-10-16T05:15:35;15.54;98.57
70246;SHT30;57637;49.272;8.590;2022-10-16T05:18:01;15.54;98.55
70246;SHT30;57637;49.272;8.590;2022-10-16T05:20:27;15.55;98.49
70246;SHT30;57637;49.272;8.590;2022-10-16T05:22:52;15.54;98.52
70246;SHT30;57637;49.272;8.590;2022-10-16T05:25:17;15.54;98.49
70246;SHT30;57637;49.272;8.590;2022-10-16T05:27:46;15.54;98.46
70246;SHT30;57637;49.272;8.590;2022-10-16T05:30:12;15.50;98.44
70246;SHT30;57637;49.272;8.590;2022-10-16T05:32:38;15.55;98.52
70246;SHT30;57637;49.272;8.590;2022-10-16T05:35:03;15.53;98.49
70246;SHT30;57637;49.272;8.590;2022-10-16T05:37:29;15.51;98.44
70246;SHT30;57637;49.272;8.590;2022-10-16T05:39:54;15.51;98.48
70246;SHT30;57637;49.272;8.590;2022-10-16T05:42:20;15.50;98.49
70246;SHT30;57637;49.272;8.590;2022-10-16T05:44:45;15.51;98.54
70246;SHT30;57637;49.272;8.590;2022-10-16T05:47:12;15.51;98.51
70246;SHT30;57637;49.272;8.590;2022-10-16T05:49:37;15.54;98.51
70246;SHT30;57637;49.272;8.590;2022-10-16T05:52:03;15.58;98.52
70246;SHT30;57637;49.272;8.590;2022-10-16T05:54:28;15.60;98.44
70246;SHT30;57637;49.272;8.590;2022-10-16T05:56:54;15.61;98.43
70246;SHT30;57637;49.272;8.590;2022-10-16T05:59:19;15.64;98.37
70246;SHT30;57637;49.272;8.590;2022-10-16T06:01:44;15.68;98.26
70246;SHT30;57637;49.272;8.590;2022-10-16T06:04:10;15.68;98.21
70246;SHT30;57637;49.272;8.590;2022-10-16T06:06:35;15.70;98.13
70246;SHT30;57637;49.272;8.590;2022-10-16T06:09:01;15.71;98.12
70246;SHT30;57637;49.272;8.590;2022-10-16T06:11:28;15.70;98.11
70246;SHT30;57637;49.272;8.590;2022-10-16T06:13:56;15.68;98.21
70246;SHT30;57637;49.272;8.590;2022-10-16T06:16:24;15.67;98.14
70246;SHT30;57637;49.272;8.590;2022-10-16T06:18:50;15.65;98.22
70246;SHT30;57637;49.272;8.590;2022-10-16T06:21:18;15.70;98.27
70246;SHT30;57637;49.272;8.590;2022-10-16T06:23:45;15.71;98.25
70246;SHT30;57637;49.272;8.590;2022-10-16T06:26:12;15.74;98.23
70246;SHT30;57637;49.272;8.590;2022-10-16T06:28:38;15.71;98.19
70246;SHT30;57637;49.272;8.590;2022-10-16T06:31:05;15.70;98.44
70246;SHT30;57637;49.272;8.590;2022-10-16T06:33:31;15.72;98.37
70246;SHT30;57637;49.272;8.590;2022-10-16T06:36:04;15.74;98.32
70246;SHT30;57637;49.272;8.590;2022-10-16T06:38:31;15.74;98.24
70246;SHT30;57637;49.272;8.590;2022-10-16T06:40:57;15.80;98.18
70246;SHT30;57637;49.272;8.590;2022-10-16T06:43:23;15.80;98.07
70246;SHT30;57637;49.272;8.590;2022-10-16T06:45:52;15.80;98.01
70246;SHT30;57637;49.272;8.590;2022-10-16T06:48:18;15.81;97.95
70246;SHT30;57637;49.272;8.590;2022-10-16T06:50:54;15.84;97.93
70246;SHT30;57637;49.272;8.590;2022-10-16T06:53:27;15.88;97.80
70246;SHT30;57637;49.272;8.590;2022-10-16T06:55:54;15.92;97.72
70246;SHT30;57637;49.272;8.590;2022-10-16T06:58:20;15.98;97.61
70246;SHT30;57637;49.272;8.590;2022-10-16T07:00:46;16.06;97.53
70246;SHT30;57637;49.272;8.590;2022-10-16T07:03:11;16.13;97.41
70246;SHT30;57637;49.272;8.590;2022-10-16T07:05:37;16.19;97.20
70246;SHT30;57637;49.272;8.590;2022-10-16T07:08:03;16.22;96.99
70246;SHT30;57637;49.272;8.590;2022-10-16T07:10:30;16.25;96.79
70246;SHT30;57637;49.272;8.590;2022-10-16T07:12:56;16.29;96.61
70246;SHT30;57637;49.272;8.590;2022-10-16T07:15:21;16.30;96.50
70246;SHT30;57637;49.272;8.590;2022-10-16T07:17:47;16.41;96.40
70246;SHT30;57637;49.272;8.590;2022-10-16T07:20:12;16.51;96.23
70246;SHT30;57637;49.272;8.590;2022-10-16T07:22:37;16.59;95.93
70246;SHT30;57637;49.272;8.590;2022-10-16T07:25:03;16.69;95.71
70246;SHT30;57637;49.272;8.590;2022-10-16T07:27:29;16.76;95.70
70246;SHT30;57637;49.272;8.590;2022-10-16T07:29:54;16.86;95.49
70246;SHT30;57637;49.272;8.590;2022-10-16T07:32:19;16.90;94.84
70246;SHT30;57637;49.272;8.590;2022-10-16T07:34:45;16.99;94.64
70246;SHT30;57637;49.272;8.590;2022-10-16T07:37:10;17.08;94.58
70246;SHT30;57637;49.272;8.590;2022-10-16T07:39:36;17.11;94.42
70246;SHT30;57637;49.272;8.590;2022-10-16T07:42:01;17.07;94.07
70246;SHT30;57637;49.272;8.590;2022-10-16T07:44:27;17.18;94.31
70246;SHT30;57637;49.272;8.590;2022-10-16T07:46:52;17.31;93.53
70246;SHT30;57637;49.272;8.590;2022-10-16T07:49:18;17.39;93.11
70246;SHT30;57637;49.272;8.590;2022-10-16T07:51:43;17.48;92.78
70246;SHT30;57637;49.272;8.590;2022-10-16T07:54:09;17.56;92.90
70246;SHT30;57637;49.272;8.590;2022-10-16T07:56:35;17.59;92.87
70246;SHT30;57637;49.272;8.590;2022-10-16T07:59:00;17.51;93.07
70246;SHT30;57637;49.272;8.590;2022-10-16T08:01:26;17.58;92.26
70246;SHT30;57637;49.272;8.590;2022-10-16T08:03:51;17.66;92.38
70246;SHT30;57637;49.272;8.590;2022-10-16T08:06:17;17.62;92.01
70246;SHT30;57637;49.272;8.590;2022-10-16T08:08:44;17.69;92.01
70246;SHT30;57637;49.272;8.590;2022-10-16T08:11:10;17.66;92.38
70246;SHT30;57637;49.272;8.590;2022-10-16T08:13:36;17.78;91.88
70246;SHT30;57637;49.272;8.590;2022-10-16T08:16:01;17.66;91.62
70246;SHT30;57637;49.272;8.590;2022-10-16T08:18:32;17.68;92.50
70246;SHT30;57637;49.272;8.590;2022-10-16T08:21:05;17.55;92.82
70246;SHT30;57637;49.272;8.590;2022-10-16T08:23:32;17.42;93.30
70246;SHT30;57637;49.272;8.590;2022-10-16T08:26:01;17.32;93.87
70246;SHT30;57637;49.272;8.590;2022-10-16T08:28:31;17.35;93.93
70246;SHT30;57637;49.272;8.590;2022-10-16T08:31:04;17.34;93.77
70246;SHT30;57637;49.272;8.590;2022-10-16T08:33:42;17.35;93.63
70246;SHT30;57637;49.272;8.590;2022-10-16T08:36:10;17.49;93.73
70246;SHT30;57637;49.272;8.590;2022-10-16T08:38:36;17.56;93.20
70246;SHT30;57637;49.272;8.590;2022-10-16T08:41:17;17.74;93.32
70246;SHT30;57637;49.272;8.590;2022-10-16T08:46:43;18.14;91.76
70246;SHT30;57637;49.272;8.590;2022-10-16T08:49:17;18.34;91.87
70246;SHT30;57637;49.272;8.590;2022-10-16T08:51:43;18.53;90.92
70246;SHT30;57637;49.272;8.590;2022-10-16T08:57:04;18.90;89.36
70246;SHT30;57637;49.272;8.590;2022-10-16T08:59:36;18.77;88.71
70246;SHT30;57637;49.272;8.590;2022-10-16T09:02:01;18.81;90.07
70246;SHT30;57637;49.272;8.590;2022-10-16T09:17:54;19.35;86.90
70246;SHT30;57637;49.272;8.590;2022-10-16T09:20:28;19.66;86.11
70246;SHT30;57637;49.272;8.590;2022-10-16T09:25:29;19.76;86.36
70246;SHT30;57637;49.272;8.590;2022-10-16T09:27:56;19.53;85.16
70246;SHT30;57637;49.272;8.590;2022-10-16T09:30:21;19.79;84.91
70246;SHT30;57637;49.272;8.590;2022-10-16T09:32:49;19.93;84.62
70246;SHT30;57637;49.272;8.590;2022-10-16T09:35:17;19.29;84.39
70246;SHT30;57637;49.272;8.590;2022-10-16T09:37:47;19.74;84.40
70246;SHT30;57637;49.272;8.590;2022-10-16T09:40:25;19.97;84.10
70246;SHT30;57637;49.272;8.590;2022-10-16T09:42:56;19.70;83.71
70246;SHT30;57637;49.272;8.590;2022-10-16T09:45:27;19.63;83.16
70246;SHT30;57637;49.272;8.590;2022-10-16T09:47:52;19.66;84.09
70246;SHT30;57637;49.272;8.590;2022-10-16T09:50:25;20.09;83.04
70246;SHT30;57637;49.272;8.590;2022-10-16T09:53:05;20.30;81.90
70246;SHT30;57637;49.272;8.590;2022-10-16T09:55:35;20.45;81.39
70246;SHT30;57637;49.272;8.590;2022-10-16T09:58:01;20.58;81.71
70246;SHT30;57637;49.272;8.590;2022-10-16T10:00:26;20.49;81.82
70246;SHT30;57637;49.272;8.590;2022-10-16T10:02:52;20.64;81.53
70246;SHT30;57637;49.272;8.590;2022-10-16T10:05:22;20.76;81.17
70246;SHT30;57637;49.272;8.590;2022-10-16T10:07:55;21.09;80.21
70246;SHT30;57637;49.272;8.590;2022-10-16T10:10:27;21.29;80.20
70246;SHT30;57637;49.272;8.590;2022-10-16T10:12:54;20.76;78.76
70246;SHT30;57637;49.272;8.590;2022-10-16T10:15:21;21.08;79.52
70246;SHT30;57637;49.272;8.590;2022-10-16T10:17:52;21.26;78.66
70246;SHT30;57637;49.272;8.590;2022-10-16T10:22:57;21.56;78.66
70246;SHT30;57637;49.272;8.590;2022-10-16T10:33:40;21.49;77.24
70246;SHT30;57637;49.272;8.590;2022-10-16T10:36:30;21.76;77.52
70246;SHT30;57637;49.272;8.590;2022-10-16T10:38:59;21.68;77.91
70246;SHT30;57637;49.272;8.590;2022-10-16T10:50:57;21.77;75.40
70246;SHT30;57637;49.272;8.590;2022-10-16T10:59:19;21.74;75.29
70246;SHT30;57637;49.272;8.590;2022-10-16T11:02:24;21.37;75.58
70246;SHT30;57637;49.272;8.590;2022-10-16T11:07:52;22.02;75.38
70246;SHT30;57637;49.272;8.590;2022-10-16T11:10:36;22.27;74.59
70246;SHT30;57637;49.272;8.590;2022-10-16T11:13:53;22.27;75.17
70246;SHT30;57637;49.272;8.590;2022-10-16T11:16:15;22.30;73.86
70246;SHT30;57637;49.272;8.590;2022-10-16T11:21:38;22.52;73.89
70246;SHT30;57637;49.272;8.590;2022-10-16T11:24:14;22.39;74.53
70246;SHT30;57637;49.272;8.590;2022-10-16T11:26:47;22.32;74.01
70246;SHT30;57637;49.272;8.590;2022-10-16T11:29:17;22.30;73.07
70246;SHT30;57637;49.272;8.590;2022-10-16T11:31:50;22.22;74.71
70246;SHT30;57637;49.272;8.590;2022-10-16T11:39:37;21.87;74.22
70246;SHT30;57637;49.272;8.590;2022-10-16T11:56:01;22.27;74.54
70246;SHT30;57637;49.272;8.590;2022-10-16T11:58:28;22.42;73.60
70246;SHT30;57637;49.272;8.590;2022-10-16T12:01:07;22.56;73.29
70246;SHT30;57637;49.272;8.590;2022-10-16T12:03:57;22.63;71.68
70246;SHT30;57637;49.272;8.590;2022-10-16T12:08:58;22.75;71.62
70246;SHT30;57637;49.272;8.590;2022-10-16T12:14:07;22.99;72.11
70246;SHT30;57637;49.272;8.590;2022-10-16T12:16:51;22.99;71.53
70246;SHT30;57637;49.272;8.590;2022-10-16T12:19:17;23.12;71.37
70246;SHT30;57637;49.272;8.590;2022-10-16T12:21:44;23.19;70.74
70246;SHT30;57637;49.272;8.590;2022-10-16T12:24:31;23.24;70.84
70246;SHT30;57637;49.272;8.590;2022-10-16T12:27:18;23.22;70.73
70246;SHT30;57637;49.272;8.590;2022-10-16T12:29:54;23.33;70.16
70246;SHT30;57637;49.272;8.590;2022-10-16T12:32:34;23.42;70.33
70246;SHT30;57637;49.272;8.590;2022-10-16T12:35:04;23.63;70.14
70246;SHT30;57637;49.272;8.590;2022-10-16T12:37:33;23.88;68.88
70246;SHT30;57637;49.272;8.590;2022-10-16T12:40:11;23.91;68.19
70246;SHT30;57637;49.272;8.590;2022-10-16T12:42:49;24.00;67.05
70246;SHT30;57637;49.272;8.590;2022-10-16T12:47:50;23.86;67.13
70246;SHT30;57637;49.272;8.590;2022-10-16T12:52:51;23.67;67.36
70246;SHT30;57637;49.272;8.590;2022-10-16T12:55:18;23.53;67.26
70246;SHT30;57637;49.272;8.590;2022-10-16T13:00:50;23.37;67.71
70246;SHT30;57637;49.272;8.590;2022-10-16T13:27:50;22.59;71.65
70246;SHT30;57637;49.272;8.590;2022-10-16T13:30:26;22.39;71.84
70246;SHT30;57637;49.272;8.590;2022-10-16T13:33:07;22.15;72.05
70246;SHT30;57637;49.272;8.590;2022-10-16T13:35:48;21.94;73.22
70246;SHT30;57637;49.272;8.590;2022-10-16T13:38:17;21.96;73.20
70246;SHT30;57637;49.272;8.590;2022-10-16T13:40:51;21.80;73.19
70246;SHT30;57637;49.272;8.590;2022-10-16T13:43:32;21.84;73.85
70246;SHT30;57637;49.272;8.590;2022-10-16T13:49:20;21.77;73.37
70246;SHT30;57637;49.272;8.590;2022-10-16T13:51:54;21.61;73.53
70246;SHT30;57637;49.272;8.590;2022-10-16T13:54:24;21.63;72.82
70246;SHT30;57637;49.272;8.590;2022-10-16T13:56:51;21.51;73.62
70246;SHT30;57637;49.272;8.590;2022-10-16T14:01:58;21.35;73.11
70246;SHT30;57637;49.272;8.590;2022-10-16T14:04:32;21.29;73.67
70246;SHT30;57637;49.272;8.590;2022-10-16T14:06:58;21.22;73.86
70246;SHT30;57637;49.272;8.590;2022-10-16T14:09:27;21.09;73.34
70246;SHT30;57637;49.272;8.590;2022-10-16T14:14:20;21.13;73.89
70246;SHT30;57637;49.272;8.590;2022-10-16T14:16:46;21.16;74.88
70246;SHT30;57637;49.272;8.590;2022-10-16T14:19:20;21.16;75.19
70246;SHT30;57637;49.272;8.590;2022-10-16T14:21:46;21.13;74.75
70246;SHT30;57637;49.272;8.590;2022-10-16T14:24:13;21.03;74.45
70246;SHT30;57637;49.272;8.590;2022-10-16T14:26:47;20.99;74.55
70246;SHT30;57637;49.272;8.590;2022-10-16T14:29:14;21.03;74.92
70246;SHT30;57637;49.272;8.590;2022-10-16T14:31:43;20.94;74.70
70246;SHT30;57637;49.272;8.590;2022-10-16T14:34:23;20.86;75.64
70246;SHT30;57637;49.272;8.590;2022-10-16T14:36:49;20.84;76.98
70246;SHT30;57637;49.272;8.590;2022-10-16T14:39:17;20.74;78.41
70246;SHT30;57637;49.272;8.590;2022-10-16T14:41:47;20.59;78.27
70246;SHT30;57637;49.272;8.590;2022-10-16T14:44:14;20.57;78.03
70246;SHT30;57637;49.272;8.590;2022-10-16T14:46:42;20.54;78.23
70246;SHT30;57637;49.272;8.590;2022-10-16T14:51:34;20.49;78.65
70246;SHT30;57637;49.272;8.590;2022-10-16T14:54:01;20.54;78.71
70246;SHT30;57637;49.272;8.590;2022-10-16T14:56:30;20.65;78.85
70246;SHT30;57637;49.272;8.590;2022-10-16T14:59:07;20.75;78.21
70246;SHT30;57637;49.272;8.590;2022-10-16T15:01:38;20.85;78.04
70246;SHT30;57637;49.272;8.590;2022-10-16T15:04:03;20.88;77.76
70246;SHT30;57637;49.272;8.590;2022-10-16T15:06:29;20.99;77.59
70246;SHT30;57637;49.272;8.590;2022-10-16T15:08:54;20.99;77.53
70246;SHT30;57637;49.272;8.590;2022-10-16T15:11:19;20.96;77.75
70246;SHT30;57637;49.272;8.590;2022-10-16T15:13:45;20.84;77.46
70246;SHT30;57637;49.272;8.590;2022-10-16T15:16:12;20.85;77.99
70246;SHT30;57637;49.272;8.590;2022-10-16T15:18:38;20.88;77.96
70246;SHT30;57637;49.272;8.590;2022-10-16T15:21:04;20.84;77.93
70246;SHT30;57637;49.272;8.590;2022-10-16T15:23:29;20.85;77.86
70246;SHT30;57637;49.272;8.590;2022-10-16T15:25:55;20.78;77.90
70246;SHT30;57637;49.272;8.590;2022-10-16T15:28:21;20.75;77.76
70246;SHT30;57637;49.272;8.590;2022-10-16T15:30:52;20.67;77.77
70246;SHT30;57637;49.272;8.590;2022-10-16T15:33:22;20.59;78.56
70246;SHT30;57637;49.272;8.590;2022-10-16T15:35:51;20.54;78.75
70246;SHT30;57637;49.272;8.590;2022-10-16T15:38:18;20.48;79.23
70246;SHT30;57637;49.272;8.590;2022-10-16T15:40:45;20.45;79.57
70246;SHT30;57637;49.272;8.590;2022-10-16T15:43:12;20.40;79.55
70246;SHT30;57637;49.272;8.590;2022-10-16T15:45:37;20.41;79.79
70246;SHT30;57637;49.272;8.590;2022-10-16T15:48:03;20.38;80.08
70246;SHT30;57637;49.272;8.590;2022-10-16T15:50:29;20.38;80.09
70246;SHT30;57637;49.272;8.590;2022-10-16T15:52:56;20.37;80.19
70246;SHT30;57637;49.272;8.590;2022-10-16T15:55:22;20.35;80.29
70246;SHT30;57637;49.272;8.590;2022-10-16T15:57:47;20.37;80.45
70246;SHT30;57637;49.272;8.590;2022-10-16T16:00:14;20.33;80.34
70246;SHT30;57637;49.272;8.590;2022-10-16T16:02:42;20.31;80.85
70246;SHT30;57637;49.272;8.590;2022-10-16T16:05:09;20.18;82.60
70246;SHT30;57637;49.272;8.590;2022-10-16T16:07:36;20.09;82.67
70246;SHT30;57637;49.272;8.590;2022-10-16T16:10:03;20.06;82.64
70246;SHT30;57637;49.272;8.590;2022-10-16T16:12:30;19.97;82.37
70246;SHT30;57637;49.272;8.590;2022-10-16T16:14:56;19.92;82.18
70246;SHT30;57637;49.272;8.590;2022-10-16T16:17:21;19.86;82.32
70246;SHT30;57637;49.272;8.590;2022-10-16T16:19:47;19.80;82.34
70246;SHT30;57637;49.272;8.590;2022-10-16T16:22:12;19.72;82.36
70246;SHT30;57637;49.272;8.590;2022-10-16T16:24:38;19.66;82.42
70246;SHT30;57637;49.272;8.590;2022-10-16T16:27:03;19.59;82.56
70246;SHT30;57637;49.272;8.590;2022-10-16T16:29:29;19.51;82.76
70246;SHT30;57637;49.272;8.590;2022-10-16T16:31:54;19.46;83.05
70246;SHT30;57637;49.272;8.590;2022-10-16T16:34:25;19.41;83.01
70246;SHT30;57637;49.272;8.590;2022-10-16T16:36:52;19.33;82.97
70246;SHT30;57637;49.272;8.590;2022-10-16T16:39:18;19.25;83.40
70246;SHT30;57637;49.272;8.590;2022-10-16T16:41:43;19.21;83.71
70246;SHT30;57637;49.272;8.590;2022-10-16T16:44:10;19.14;84.09
70246;SHT30;57637;49.272;8.590;2022-10-16T16:46:37;19.07;84.39
70246;SHT30;57637;49.272;8.590;2022-10-16T16:49:04;19.00;85.13
70246;SHT30;57637;49.272;8.590;2022-10-16T16:51:31;18.88;85.55
70246;SHT30;57637;49.272;8.590;2022-10-16T16:53:57;18.81;86.00
70246;SHT30;57637;49.272;8.590;2022-10-16T16:56:22;18.68;86.55
70246;SHT30;57637;49.272;8.590;2022-10-16T16:58:50;18.65;86.93
70246;SHT30;57637;49.272;8.590;2022-10-16T17:01:17;18.51;87.35
70246;SHT30;57637;49.272;8.590;2022-10-16T17:03:43;18.43;87.35
70246;SHT30;57637;49.272;8.590;2022-10-16T17:06:09;18.41;87.60
70246;SHT30;57637;49.272;8.590;2022-10-16T17:08:36;18.39;87.47
70246;SHT30;57637;49.272;8.590;2022-10-16T17:11:03;18.29;87.49
70246;SHT30;57637;49.272;8.590;2022-10-16T17:13:33;18.26;87.63
70246;SHT30;57637;49.272;8.590;2022-10-16T17:16:01;18.23;87.55
70246;SHT30;57637;49.272;8.590;2022-10-16T17:18:27;18.17;87.49
70246;SHT30;57637;49.272;8.590;2022-10-16T17:20:53;18.14;87.44
70246;SHT30;57637;49.272;8.590;2022-10-16T17:23:19;18.13;87.40
70246;SHT30;57637;49.272;8.590;2022-10-16T17:25:45;18.07;87.42
70246;SHT30;57637;49.272;8.590;2022-10-16T17:28:11;18.05;87.66
70246;SHT30;57637;49.272;8.590;2022-10-16T17:30:38;18.00;87.90
70246;SHT30;57637;49.272;8.590;2022-10-16T17:33:04;17.95;88.12
70246;SHT30;57637;49.272;8.590;2022-10-16T17:35:37;17.90;88.32
70246;SHT30;57637;49.272;8.590;2022-10-16T17:38:05;17.86;88.53
70246;SHT30;57637;49.272;8.590;2022-10-16T17:40:31;17.83;88.72
70246;SHT30;57637;49.272;8.590;2022-10-16T17:43:03;17.82;88.87
70246;SHT30;57637;49.272;8.590;2022-10-16T17:45:29;17.76;89.13
70246;SHT30;57637;49.272;8.590;2022-10-16T17:47:55;17.72;89.57
70246;SHT30;57637;49.272;8.590;2022-10-16T17:50:22;17.66;89.76
70246;SHT30;57637;49.272;8.590;2022-10-16T17:52:48;17.65;90.01
70246;SHT30;57637;49.272;8.590;2022-10-16T17:55:13;17.62;90.11
70246;SHT30;57637;49.272;8.590;2022-10-16T17:57:39;17.58;90.36